createdAt,value
2023-05-10T00:00:16.393Z,16.9358
2023-05-10T00:01:17.560Z,16.9327
2023-05-10T00:02:19.022Z,16.9177
2023-05-10T00:03:20.435Z,16.9194
2023-05-10T00:04:21.912Z,16.9319
2023-05-10T00:05:23.276Z,16.9255
2023-05-10T00:06:25.295Z,16.9214
2023-05-10T00:07:26.094Z,16.9052
2023-05-10T00:08:27.552Z,16.9068
2023-05-10T00:09:28.925Z,16.9198
2023-05-10T00:10:30.366Z,16.9422
2023-05-10T00:11:31.824Z,16.9259
2023-05-10T00:12:33.201Z,16.8267
2023-05-10T00:13:34.690Z,16.7998
2023-05-10T00:14:36.034Z,16.8719
2023-05-10T00:15:37.517Z,16.9389
2023-05-10T00:16:38.972Z,16.9798
2023-05-10T00:17:40.421Z,16.9506
2023-05-10T00:18:41.631Z,16.8368
2023-05-10T00:19:43.176Z,16.8191
2023-05-10T00:20:44.589Z,16.8660
2023-05-10T00:21:46.079Z,16.9409
2023-05-10T00:22:47.486Z,16.9865
2023-05-10T00:23:48.943Z,16.9775
2023-05-10T00:24:50.321Z,16.8586
2023-05-10T00:25:52.373Z,16.8103
2023-05-10T00:26:53.140Z,16.8543
2023-05-10T00:27:54.613Z,16.9331
2023-05-10T00:28:55.940Z,16.9769
2023-05-10T00:29:57.418Z,17.0065
2023-05-10T00:30:58.849Z,17.0120
2023-05-10T00:32:00.347Z,16.8773
2023-05-10T00:33:01.744Z,16.8146
2023-05-10T00:34:03.197Z,16.8927
2023-05-10T00:35:04.600Z,16.9557
2023-05-10T00:36:05.966Z,16.9855
2023-05-10T00:37:07.385Z,17.0071
2023-05-10T00:38:08.821Z,16.9545
2023-05-10T00:39:10.163Z,16.8066
2023-05-10T00:40:11.637Z,16.8195
2023-05-10T00:41:13.821Z,16.8867
2023-05-10T00:42:14.539Z,16.9572
2023-05-10T00:43:15.873Z,16.9876
2023-05-10T00:44:17.345Z,17.0054
2023-05-10T00:45:18.862Z,16.9391
2023-05-10T00:46:20.349Z,16.7918
2023-05-10T00:47:21.700Z,16.7666
2023-05-10T00:48:23.195Z,16.8832
2023-05-10T00:49:24.548Z,16.9477
2023-05-10T00:50:25.893Z,16.9878
2023-05-10T00:51:27.378Z,17.0196
2023-05-10T00:52:28.848Z,16.9574
2023-05-10T00:53:30.190Z,16.8372
2023-05-10T00:54:31.635Z,16.8362
2023-05-10T00:55:33.033Z,16.9169
2023-05-10T00:56:34.526Z,16.9627
2023-05-10T00:57:35.887Z,16.9894
2023-05-10T00:58:37.200Z,17.0188
2023-05-10T00:59:38.711Z,16.9716
2023-05-10T01:00:40.150Z,16.8167
2023-05-10T01:01:41.601Z,16.8477
2023-05-10T01:02:43.071Z,16.9013
2023-05-10T01:03:44.399Z,16.9533
2023-05-10T01:04:45.851Z,16.9816
2023-05-10T01:05:47.242Z,17.0145
2023-05-10T01:06:48.785Z,17.0194
2023-05-10T01:07:50.124Z,16.8432
2023-05-10T01:08:51.555Z,16.7684
2023-05-10T01:09:52.917Z,16.8037
2023-05-10T01:10:54.373Z,16.8941
2023-05-10T01:11:55.815Z,16.9467
2023-05-10T01:12:57.340Z,16.9865
2023-05-10T01:13:58.704Z,17.0087
2023-05-10T01:15:00.162Z,16.9492
2023-05-10T01:16:01.504Z,16.8364
2023-05-10T01:17:02.913Z,16.8752
2023-05-10T01:18:04.317Z,16.9225
2023-05-10T01:19:05.763Z,16.9572
2023-05-10T01:20:07.144Z,16.9913
2023-05-10T01:21:08.592Z,17.0208
2023-05-10T01:22:09.993Z,16.9849
2023-05-10T01:23:12.366Z,16.8033
2023-05-10T01:24:12.837Z,16.8000
2023-05-10T01:25:14.292Z,16.8762
2023-05-10T01:26:15.720Z,16.9329
2023-05-10T01:27:17.165Z,16.9654
2023-05-10T01:28:18.543Z,16.9995
2023-05-10T01:29:19.976Z,17.0155
2023-05-10T01:30:22.187Z,16.9280
2023-05-10T01:31:22.901Z,16.7733
2023-05-10T01:32:24.281Z,16.8076
2023-05-10T01:33:25.600Z,16.8828
2023-05-10T01:34:27.062Z,16.9296
2023-05-10T01:35:28.546Z,16.9668
2023-05-10T01:36:29.962Z,16.9876
2023-05-10T01:37:31.395Z,16.9796
2023-05-10T01:38:32.762Z,16.8025
2023-05-10T01:39:34.224Z,16.7548
2023-05-10T01:40:35.598Z,16.8284
2023-05-10T01:41:37.037Z,16.8828
2023-05-10T01:42:38.477Z,16.9292
2023-05-10T01:43:39.944Z,16.9652
2023-05-10T01:44:41.290Z,16.9890
2023-05-10T01:45:42.751Z,17.0073
2023-05-10T01:46:44.157Z,16.8495
2023-05-10T01:47:45.681Z,16.7090
2023-05-10T01:48:47.043Z,16.7637
2023-05-10T01:49:48.491Z,16.8541
2023-05-10T01:50:49.755Z,16.9048
2023-05-10T01:51:51.375Z,16.9553
2023-05-10T01:52:53.327Z,16.9798
2023-05-10T01:53:54.140Z,17.0075
2023-05-10T01:54:55.503Z,16.9428
2023-05-10T01:55:57.023Z,16.7705
2023-05-10T01:56:58.436Z,16.8415
2023-05-10T01:57:59.760Z,16.8929
2023-05-10T01:59:01.152Z,16.9331
2023-05-10T02:00:02.678Z,16.9670
2023-05-10T02:01:04.065Z,16.9954
2023-05-10T02:02:05.525Z,17.0106
2023-05-10T02:03:07.026Z,16.8604
2023-05-10T02:04:08.468Z,16.7023
2023-05-10T02:05:09.686Z,16.7511
2023-05-10T02:06:11.284Z,16.8343
2023-05-10T02:07:12.584Z,16.8927
2023-05-10T02:08:14.062Z,16.9354
2023-05-10T02:09:15.484Z,16.9625
2023-05-10T02:10:17.098Z,16.9890
2023-05-10T02:11:18.192Z,16.9414
2023-05-10T02:12:19.726Z,16.7347
2023-05-10T02:13:21.251Z,16.7532
2023-05-10T02:14:22.577Z,16.8341
2023-05-10T02:15:24.028Z,16.8795
2023-05-10T02:16:25.452Z,16.9284
2023-05-10T02:17:26.836Z,16.9674
2023-05-10T02:18:28.269Z,16.9946
2023-05-10T02:19:29.782Z,16.9120
2023-05-10T02:20:31.136Z,16.7220
2023-05-10T02:21:32.555Z,16.7729
2023-05-10T02:22:33.886Z,16.8596
2023-05-10T02:23:35.381Z,16.9048
2023-05-10T02:24:36.780Z,16.9409
2023-05-10T02:25:38.092Z,16.9752
2023-05-10T02:26:39.616Z,16.9946
2023-05-10T02:27:41.115Z,16.9553
2023-05-10T02:28:42.428Z,16.7429
2023-05-10T02:29:43.936Z,16.7362
2023-05-10T02:30:45.294Z,16.8021
2023-05-10T02:31:46.741Z,16.8680
2023-05-10T02:32:48.139Z,16.9071
2023-05-10T02:33:49.582Z,16.9471
2023-05-10T02:34:50.920Z,16.9816
2023-05-10T02:35:52.407Z,17.0050
2023-05-10T02:36:53.810Z,16.9841
2023-05-10T02:37:55.279Z,16.7859
2023-05-10T02:38:56.628Z,16.7809
2023-05-10T02:39:58.130Z,16.8516
2023-05-10T02:40:59.480Z,16.9042
2023-05-10T02:42:00.830Z,16.9428
2023-05-10T02:43:02.405Z,16.9736
2023-05-10T02:44:03.750Z,16.9892
2023-05-10T02:45:05.203Z,17.0116
2023-05-10T02:46:06.631Z,16.9412
2023-05-10T02:47:07.972Z,16.7205
2023-05-10T02:48:09.538Z,16.7201
2023-05-10T02:49:10.792Z,16.7992
2023-05-10T02:50:12.307Z,16.8851
2023-05-10T02:51:14.389Z,16.9294
2023-05-10T02:52:15.157Z,16.9615
2023-05-10T02:53:16.514Z,16.9904
2023-05-10T02:54:17.888Z,17.0036
2023-05-10T02:55:19.416Z,16.9752
2023-05-10T02:56:20.916Z,16.7906
2023-05-10T02:57:22.276Z,16.8097
2023-05-10T02:58:23.737Z,16.8744
2023-05-10T02:59:25.074Z,16.9124
2023-05-10T03:00:26.638Z,16.9512
2023-05-10T03:01:27.990Z,16.9755
2023-05-10T03:02:29.346Z,16.9966
2023-05-10T03:03:30.706Z,17.0235
2023-05-10T03:04:32.294Z,16.9952
2023-05-10T03:05:33.649Z,16.8362
2023-05-10T03:06:35.027Z,16.7433
2023-05-10T03:07:36.424Z,16.8321
2023-05-10T03:08:37.963Z,16.8843
2023-05-10T03:09:39.282Z,16.9286
2023-05-10T03:10:40.648Z,16.9605
2023-05-10T03:11:42.128Z,16.9810
2023-05-10T03:12:43.595Z,17.0067
2023-05-10T03:13:44.934Z,17.0272
2023-05-10T03:14:46.388Z,16.9025
2023-05-10T03:15:48.389Z,16.8725
2023-05-10T03:16:49.346Z,16.9251
2023-05-10T03:17:50.727Z,16.9520
2023-05-10T03:18:52.157Z,16.9670
2023-05-10T03:19:53.438Z,16.9933
2023-05-10T03:20:54.988Z,17.0178
2023-05-10T03:21:56.377Z,17.0338
2023-05-10T03:22:57.817Z,16.9144
2023-05-10T03:23:59.178Z,16.7760
2023-05-10T03:25:00.555Z,16.8105
2023-05-10T03:26:02.070Z,16.8832
2023-05-10T03:27:03.519Z,16.9286
2023-05-10T03:28:04.925Z,16.9621
2023-05-10T03:29:06.322Z,16.9857
2023-05-10T03:30:07.715Z,17.0141
2023-05-10T03:31:09.139Z,17.0233
2023-05-10T03:32:10.658Z,16.9118
2023-05-10T03:33:12.068Z,16.7362
2023-05-10T03:34:13.388Z,16.8050
2023-05-10T03:35:14.858Z,16.8738
2023-05-10T03:36:16.235Z,16.9142
2023-05-10T03:37:17.813Z,16.9444
2023-05-10T03:38:19.177Z,16.9726
2023-05-10T03:39:20.581Z,16.9931
2023-05-10T03:40:21.930Z,17.0155
2023-05-10T03:41:23.435Z,16.9186
2023-05-10T03:42:24.812Z,16.7787
2023-05-10T03:43:26.243Z,16.7894
2023-05-10T03:44:27.628Z,16.8674
2023-05-10T03:45:28.938Z,16.9216
2023-05-10T03:46:30.492Z,16.9547
2023-05-10T03:47:31.976Z,16.9726
2023-05-10T03:48:33.326Z,17.0040
2023-05-10T03:49:34.780Z,16.9467
2023-05-10T03:50:36.134Z,16.7746
2023-05-10T03:51:37.567Z,16.7869
2023-05-10T03:52:39.936Z,16.8600
2023-05-10T03:53:40.378Z,16.9186
2023-05-10T03:54:41.844Z,16.9539
2023-05-10T03:55:43.272Z,16.9812
2023-05-10T03:56:44.671Z,16.9931
2023-05-10T03:57:46.161Z,16.9750
2023-05-10T03:58:47.525Z,16.7982
2023-05-10T03:59:48.941Z,16.7516
2023-05-10T04:00:50.326Z,16.8341
2023-05-10T04:01:51.814Z,16.8949
2023-05-10T04:02:53.314Z,16.9397
2023-05-10T04:03:54.750Z,16.9687
2023-05-10T04:04:56.005Z,17.0046
2023-05-10T04:05:57.532Z,16.9672
2023-05-10T04:06:58.910Z,16.8046
2023-05-10T04:08:00.402Z,16.7949
2023-05-10T04:09:02.375Z,16.8746
2023-05-10T04:10:03.214Z,16.9272
2023-05-10T04:11:04.492Z,16.9656
2023-05-10T04:12:06.491Z,16.9964
2023-05-10T04:13:07.699Z,17.0161
2023-05-10T04:14:08.994Z,16.9681
2023-05-10T04:15:10.283Z,16.7526
2023-05-10T04:16:11.823Z,16.7748
2023-05-10T04:17:13.169Z,16.8547
2023-05-10T04:18:14.621Z,16.9083
2023-05-10T04:19:16.028Z,16.9557
2023-05-10T04:20:17.625Z,16.9794
2023-05-10T04:21:18.825Z,17.0126
2023-05-10T04:22:20.294Z,17.0143
2023-05-10T04:23:21.765Z,16.8444
2023-05-10T04:24:23.155Z,16.8021
2023-05-10T04:25:24.588Z,16.8882
2023-05-10T04:26:25.923Z,16.9227
2023-05-10T04:27:27.372Z,16.9654
2023-05-10T04:28:28.773Z,16.9935
2023-05-10T04:29:30.201Z,17.0245
2023-05-10T04:30:31.676Z,17.0102
2023-05-10T04:31:33.133Z,16.8358
2023-05-10T04:32:35.040Z,16.7861
2023-05-10T04:33:35.925Z,16.8374
2023-05-10T04:34:37.382Z,16.9114
2023-05-10T04:35:38.850Z,16.9487
2023-05-10T04:36:40.224Z,16.9890
2023-05-10T04:37:41.673Z,17.0069
2023-05-10T04:38:43.025Z,17.0235
2023-05-10T04:39:45.459Z,16.9239
2023-05-10T04:40:45.899Z,16.8333
2023-05-10T04:41:47.327Z,16.8596
2023-05-10T04:42:48.745Z,16.9136
2023-05-10T04:43:50.178Z,16.9644
2023-05-10T04:44:51.586Z,17.0011
2023-05-10T04:45:53.036Z,17.0163
2023-05-10T04:46:54.511Z,17.0065
2023-05-10T04:47:56.001Z,16.7867
2023-05-10T04:48:57.334Z,16.7797
2023-05-10T04:49:58.826Z,16.8481
2023-05-10T04:51:00.142Z,16.9307
2023-05-10T04:52:01.671Z,16.9617
2023-05-10T04:53:03.071Z,16.9904
2023-05-10T04:54:06.626Z,17.0155
2023-05-10T04:55:06.907Z,16.9395
2023-05-10T04:56:07.266Z,16.7688
2023-05-10T04:57:08.670Z,16.7996
2023-05-10T04:58:10.128Z,16.8879
2023-05-10T04:59:11.583Z,16.9535
2023-05-10T05:00:12.999Z,16.9865
2023-05-10T05:01:14.383Z,17.0278
2023-05-10T05:02:15.890Z,16.9654
2023-05-10T05:03:17.266Z,16.7766
2023-05-10T05:04:18.618Z,16.8202
2023-05-10T05:05:20.068Z,16.8828
2023-05-10T05:06:21.526Z,16.9422
2023-05-10T05:07:22.845Z,16.9777
2023-05-10T05:08:24.385Z,17.0139
2023-05-10T05:09:25.728Z,17.0297
2023-05-10T05:10:27.134Z,16.8764
2023-05-10T05:11:29.465Z,16.7364
2023-05-10T05:12:30.034Z,16.8115
2023-05-10T05:13:31.458Z,16.8783
2023-05-10T05:14:32.849Z,16.9387
2023-05-10T05:15:34.265Z,16.9857
2023-05-10T05:16:35.865Z,17.0151
2023-05-10T05:17:37.219Z,16.9418
2023-05-10T05:18:38.584Z,16.8212
2023-05-10T05:19:39.990Z,16.7994
2023-05-10T05:20:42.557Z,16.8557
2023-05-10T05:21:42.867Z,16.9327
2023-05-10T05:22:44.298Z,16.9919
2023-05-10T05:23:45.678Z,17.0172
2023-05-10T05:24:47.198Z,16.8818
2023-05-10T05:25:48.525Z,16.7887
2023-05-10T05:26:50.057Z,16.8413
2023-05-10T05:27:51.423Z,16.8588
2023-05-10T05:28:52.767Z,16.9424
2023-05-10T05:29:54.239Z,16.9783
2023-05-10T05:30:55.859Z,17.0085
2023-05-10T05:31:57.237Z,16.8834
2023-05-10T05:32:58.541Z,16.7384
2023-05-10T05:33:59.956Z,16.7770
2023-05-10T05:35:01.449Z,16.8134
2023-05-10T05:36:02.876Z,16.8999
2023-05-10T05:37:04.252Z,16.9695
2023-05-10T05:38:05.653Z,17.0091
2023-05-10T05:39:06.924Z,16.9933
2023-05-10T05:40:08.373Z,16.7988
2023-05-10T05:41:09.937Z,16.7600
2023-05-10T05:42:11.409Z,16.8173
2023-05-10T05:43:13.230Z,16.9042
2023-05-10T05:44:14.071Z,16.9771
2023-05-10T05:45:15.896Z,17.0073
2023-05-10T05:46:17.033Z,16.9089
2023-05-10T05:47:18.462Z,16.7811
2023-05-10T05:48:19.802Z,16.8070
2023-05-10T05:49:21.264Z,16.8483
2023-05-10T05:50:22.649Z,16.9262
2023-05-10T05:51:24.142Z,16.9796
2023-05-10T05:52:25.602Z,17.0186
2023-05-10T05:53:26.905Z,16.9598
2023-05-10T05:54:28.330Z,16.7863
2023-05-10T05:55:29.687Z,16.7364
2023-05-10T05:56:31.251Z,16.7719
2023-05-10T05:57:32.668Z,16.8610
2023-05-10T05:58:34.189Z,16.9451
2023-05-10T05:59:35.480Z,16.9919
2023-05-10T06:00:36.880Z,17.0085
2023-05-10T06:01:38.371Z,16.9465
2023-05-10T06:02:39.940Z,16.9477
2023-05-10T06:03:41.208Z,16.9933
2023-05-10T06:04:44.689Z,17.0406
2023-05-10T06:05:44.110Z,17.1026
2023-05-10T06:06:45.405Z,17.1866
2023-05-10T06:07:46.852Z,17.3546
2023-05-10T06:08:48.219Z,17.6229
2023-05-10T06:09:49.686Z,18.0508
2023-05-10T06:10:51.096Z,18.4634
2023-05-10T06:11:52.543Z,18.7648
2023-05-10T06:12:53.928Z,18.8231
2023-05-10T06:13:55.253Z,18.8110
2023-05-10T06:14:56.731Z,18.8679
2023-05-10T06:15:58.144Z,19.0435
2023-05-10T06:16:59.626Z,19.3453
2023-05-10T06:18:01.046Z,19.6782
2023-05-10T06:19:02.333Z,20.0283
2023-05-10T06:20:03.856Z,20.3725
2023-05-10T06:21:05.186Z,20.4491
2023-05-10T06:22:06.719Z,20.5007
2023-05-10T06:23:08.043Z,20.7186
2023-05-10T06:24:09.655Z,21.1358
2023-05-10T06:25:10.879Z,21.4709
2023-05-10T06:26:12.309Z,21.5777
2023-05-10T06:27:13.812Z,21.4902
2023-05-10T06:28:15.234Z,21.5345
2023-05-10T06:29:16.609Z,21.8550
2023-05-10T06:30:18.222Z,22.2699
2023-05-10T06:31:19.518Z,22.6869
2023-05-10T06:32:20.920Z,22.9346
2023-05-10T06:33:22.311Z,22.4342
2023-05-10T06:34:23.755Z,22.2759
2023-05-10T06:35:25.159Z,22.4387
2023-05-10T06:36:26.689Z,22.6787
2023-05-10T06:37:28.147Z,22.9603
2023-05-10T06:38:29.641Z,23.1684
2023-05-10T06:39:30.878Z,23.0712
2023-05-10T06:40:32.847Z,22.8446
2023-05-10T06:41:33.689Z,22.8931
2023-05-10T06:42:35.311Z,23.0714
2023-05-10T06:43:36.631Z,23.2984
2023-05-10T06:44:37.922Z,23.5028
2023-05-10T06:45:39.346Z,23.2688
2023-05-10T06:46:40.772Z,23.0975
2023-05-10T06:47:42.255Z,23.1891
2023-05-10T06:48:43.718Z,23.4052
2023-05-10T06:49:45.009Z,23.6110
2023-05-10T06:50:46.534Z,23.4615
2023-05-10T06:51:47.913Z,23.2692
2023-05-10T06:52:50.214Z,23.4149
2023-05-10T06:53:51.142Z,23.5810
2023-05-10T06:54:52.216Z,23.7267
2023-05-10T06:55:53.586Z,23.5104
2023-05-10T06:56:55.057Z,23.3668
2023-05-10T06:57:56.494Z,23.5362
2023-05-10T06:58:57.916Z,23.7248
2023-05-10T06:59:59.286Z,23.8244
2023-05-10T07:01:00.804Z,23.6244
2023-05-10T07:02:02.180Z,23.5469
2023-05-10T07:03:03.644Z,23.7445
2023-05-10T07:04:04.960Z,23.9132
2023-05-10T07:05:06.474Z,23.8631
2023-05-10T07:06:11.356Z,23.6196
2023-05-10T07:07:09.323Z,23.6504
2023-05-10T07:08:10.747Z,23.8468
2023-05-10T07:09:12.213Z,23.9547
2023-05-10T07:10:13.531Z,23.8353
2023-05-10T07:11:14.998Z,23.5496
2023-05-10T07:12:16.729Z,23.7308
2023-05-10T07:13:17.915Z,23.8910
2023-05-10T07:14:19.287Z,23.9678
2023-05-10T07:15:20.763Z,23.7930
2023-05-10T07:16:22.058Z,23.7544
2023-05-10T07:17:23.593Z,23.8448
2023-05-10T07:18:24.926Z,23.9370
2023-05-10T07:19:26.388Z,23.8156
2023-05-10T07:20:27.814Z,23.3286
2023-05-10T07:21:29.293Z,23.0231
2023-05-10T07:22:30.596Z,22.9664
2023-05-10T07:23:32.123Z,22.8991
2023-05-10T07:24:33.456Z,22.8514
2023-05-10T07:25:34.932Z,22.5936
2023-05-10T07:26:36.404Z,22.1886
2023-05-10T07:27:37.743Z,22.1006
2023-05-10T07:28:39.300Z,22.0895
2023-05-10T07:29:40.615Z,22.0450
2023-05-10T07:30:42.089Z,22.0571
2023-05-10T07:31:43.433Z,21.9219
2023-05-10T07:32:44.896Z,21.5226
2023-05-10T07:33:46.283Z,21.4764
2023-05-10T07:34:47.732Z,21.4667
2023-05-10T07:35:49.138Z,21.4754
2023-05-10T07:36:50.571Z,21.5236
2023-05-10T07:37:51.997Z,21.5333
2023-05-10T07:38:53.433Z,21.2979
2023-05-10T07:39:54.922Z,20.9522
2023-05-10T07:40:56.314Z,20.9444
2023-05-10T07:41:57.589Z,20.9637
2023-05-10T07:42:59.162Z,20.9715
2023-05-10T07:44:00.589Z,20.9916
2023-05-10T07:45:02.032Z,21.0604
2023-05-10T07:46:03.501Z,21.0611
2023-05-10T07:47:04.803Z,20.7059
2023-05-10T07:48:06.387Z,20.5175
2023-05-10T07:49:07.585Z,20.5465
2023-05-10T07:50:09.217Z,20.5732
2023-05-10T07:51:10.630Z,20.7178
2023-05-10T07:52:12.051Z,20.7786
2023-05-10T07:53:13.424Z,20.8540
2023-05-10T07:54:14.887Z,20.7180
2023-05-10T07:55:16.533Z,20.3711
2023-05-10T07:56:17.741Z,20.3351
2023-05-10T07:57:19.013Z,20.3773
2023-05-10T07:58:20.498Z,20.4376
2023-05-10T07:59:21.980Z,20.4906
2023-05-10T08:00:23.470Z,20.5496
2023-05-10T08:01:24.819Z,20.6835
2023-05-10T08:02:26.407Z,20.5960
2023-05-10T08:03:27.759Z,20.2181
2023-05-10T08:04:29.372Z,20.1757
2023-05-10T08:05:30.535Z,20.2240
2023-05-10T08:06:32.062Z,20.3193
2023-05-10T08:07:33.399Z,20.4403
2023-05-10T08:08:34.796Z,20.5272
2023-05-10T08:09:36.447Z,20.6172
2023-05-10T08:10:37.708Z,20.4214
2023-05-10T08:11:39.092Z,20.1751
2023-05-10T08:12:40.622Z,20.2583
2023-05-10T08:13:41.825Z,20.3095
2023-05-10T08:14:43.706Z,20.4389
2023-05-10T08:15:44.798Z,20.5410
2023-05-10T08:16:46.244Z,20.6274
2023-05-10T08:17:47.595Z,20.4346
2023-05-10T08:18:49.118Z,20.1850
2023-05-10T08:19:50.416Z,20.2368
2023-05-10T08:20:51.821Z,20.3058
2023-05-10T08:21:53.357Z,20.4292
2023-05-10T08:22:54.823Z,20.5169
2023-05-10T08:23:56.245Z,20.6098
2023-05-10T08:24:57.669Z,20.6455
2023-05-10T08:25:59.034Z,20.3725
2023-05-10T08:27:00.496Z,20.2378
2023-05-10T08:28:01.876Z,20.3481
2023-05-10T08:29:03.291Z,20.4261
2023-05-10T08:30:04.726Z,20.5102
2023-05-10T08:31:06.289Z,20.5827
2023-05-10T08:32:07.623Z,20.6829
2023-05-10T08:33:08.985Z,20.5518
2023-05-10T08:34:10.417Z,20.2489
2023-05-10T08:35:11.841Z,20.2688
2023-05-10T08:36:13.355Z,20.3477
2023-05-10T08:37:14.792Z,20.4693
2023-05-10T08:38:16.098Z,20.5280
2023-05-10T08:39:29.383Z,20.6734
2023-05-10T08:40:19.071Z,20.7008
2023-05-10T08:41:20.440Z,20.3489
2023-05-10T08:42:22.185Z,20.2160
2023-05-10T08:43:23.225Z,20.3025
2023-05-10T08:44:24.689Z,20.3939
2023-05-10T08:45:26.196Z,20.4674
2023-05-10T08:46:27.715Z,20.5305
2023-05-10T08:47:29.053Z,20.6648
2023-05-10T08:48:30.726Z,20.7509
2023-05-10T08:49:32.011Z,20.4302
2023-05-10T08:50:33.432Z,20.2168
2023-05-10T08:51:34.835Z,20.2351
2023-05-10T08:52:36.446Z,20.3670
2023-05-10T08:53:37.695Z,20.4372
2023-05-10T08:54:39.080Z,20.4978
2023-05-10T08:55:40.321Z,20.5732
2023-05-10T08:56:42.055Z,20.6533
2023-05-10T08:57:43.373Z,20.4109
2023-05-10T08:58:44.722Z,20.1147
2023-05-10T08:59:46.221Z,20.1349
2023-05-10T09:00:48.158Z,20.2569
2023-05-10T09:01:49.124Z,20.3125
2023-05-10T09:02:50.689Z,20.4122
2023-05-10T09:03:51.811Z,20.4874
2023-05-10T09:04:53.354Z,20.5475
2023-05-10T09:05:54.729Z,20.5085
2023-05-10T09:06:56.194Z,20.1151
2023-05-10T09:07:57.533Z,20.0804
2023-05-10T09:08:59.291Z,20.1552
2023-05-10T09:10:00.372Z,20.3286
2023-05-10T09:11:01.761Z,20.4245
2023-05-10T09:12:03.305Z,20.5258
2023-05-10T09:13:04.840Z,20.6229
2023-05-10T09:14:06.045Z,20.3370
2023-05-10T09:15:07.460Z,20.1554
2023-05-10T09:16:20.439Z,20.2575
2023-05-10T09:17:10.503Z,20.3227
2023-05-10T09:18:11.857Z,20.4498
2023-05-10T09:19:13.385Z,20.5434
2023-05-10T09:20:14.494Z,20.6868
2023-05-10T09:21:16.217Z,20.5521
2023-05-10T09:22:17.456Z,20.1739
2023-05-10T09:23:18.761Z,20.2433
2023-05-10T09:24:20.348Z,20.3255
2023-05-10T09:25:21.793Z,20.4500
2023-05-10T09:26:23.058Z,20.5451
2023-05-10T09:27:24.776Z,20.6778
2023-05-10T09:28:26.133Z,20.7028
2023-05-10T09:29:27.615Z,20.3867
2023-05-10T09:30:28.786Z,20.1764
2023-05-10T09:31:30.589Z,20.1981
2023-05-10T09:32:31.779Z,20.2891
2023-05-10T09:33:33.402Z,20.3925
2023-05-10T09:34:34.531Z,20.5062
2023-05-10T09:35:35.848Z,20.5794
2023-05-10T09:36:37.707Z,20.6379
2023-05-10T09:37:38.679Z,20.3818
2023-05-10T09:38:40.405Z,20.2376
2023-05-10T09:39:41.631Z,20.2830
2023-05-10T09:40:43.038Z,20.3247
2023-05-10T09:41:44.532Z,20.4403
2023-05-10T09:42:46.231Z,20.5442
2023-05-10T09:43:47.525Z,20.6722
2023-05-10T09:44:49.109Z,20.5638
2023-05-10T09:45:50.174Z,20.2704
2023-05-10T09:46:51.746Z,20.2452
2023-05-10T09:47:53.214Z,20.3641
2023-05-10T09:48:54.503Z,20.4668
2023-05-10T09:49:55.864Z,20.5506
2023-05-10T09:50:57.395Z,20.7211
2023-05-10T09:51:58.822Z,20.6213
2023-05-10T09:53:00.195Z,20.3035
2023-05-10T09:54:01.683Z,20.2883
2023-05-10T09:55:02.993Z,20.3826
2023-05-10T09:56:04.514Z,20.5182
2023-05-10T09:57:05.931Z,20.6439
2023-05-10T09:58:07.360Z,20.8867
2023-05-10T09:59:08.895Z,20.8891
2023-05-10T10:00:10.143Z,20.5560
2023-05-10T10:01:12.015Z,20.3606
2023-05-10T10:02:13.186Z,20.4370
2023-05-10T10:03:14.457Z,20.4855
2023-05-10T10:04:15.916Z,20.5656
2023-05-10T10:05:17.717Z,20.7117
2023-05-10T10:06:26.802Z,20.8107
2023-05-10T10:07:20.180Z,20.6173
2023-05-10T10:08:22.334Z,20.3586
2023-05-10T10:09:23.210Z,20.3446
2023-05-10T10:10:24.336Z,20.4814
2023-05-10T10:11:25.782Z,20.5177
2023-05-10T10:12:27.338Z,20.6032
2023-05-10T10:13:28.900Z,20.7078
2023-05-10T10:14:30.250Z,20.7842
2023-05-10T10:15:31.555Z,20.5642
2023-05-10T10:16:33.023Z,20.3949
2023-05-10T10:17:34.394Z,20.4652
2023-05-10T10:18:35.781Z,20.4997
2023-05-10T10:19:37.604Z,20.5759
2023-05-10T10:20:38.587Z,20.7201
2023-05-10T10:21:40.161Z,20.8189
2023-05-10T10:22:41.494Z,20.6297
2023-05-10T10:23:43.074Z,20.4126
2023-05-10T10:24:44.508Z,20.4194
2023-05-10T10:25:45.814Z,20.4841
2023-05-10T10:26:47.262Z,20.5707
2023-05-10T10:27:48.604Z,20.6923
2023-05-10T10:28:50.323Z,20.7934
2023-05-10T10:29:51.511Z,20.5712
2023-05-10T10:30:53.041Z,20.4046
2023-05-10T10:31:54.297Z,20.4122
2023-05-10T10:32:55.699Z,20.4826
2023-05-10T10:33:57.176Z,20.5732
2023-05-10T10:34:58.738Z,20.6999
2023-05-10T10:35:59.968Z,20.8201
2023-05-10T10:37:01.445Z,20.7100
2023-05-10T10:38:02.859Z,20.4399
2023-05-10T10:39:04.607Z,20.3902
2023-05-10T10:40:05.714Z,20.4738
2023-05-10T10:41:07.176Z,20.5442
2023-05-10T10:42:08.454Z,20.7127
2023-05-10T10:43:10.154Z,20.8409
2023-05-10T10:44:11.735Z,20.7519
2023-05-10T10:45:12.903Z,20.4300
2023-05-10T10:46:14.284Z,20.3581
2023-05-10T10:47:15.625Z,20.4771
2023-05-10T10:48:17.092Z,20.5654
2023-05-10T10:49:18.611Z,20.7108
2023-05-10T10:50:20.035Z,20.8197
2023-05-10T10:51:21.342Z,20.7244
2023-05-10T10:52:22.788Z,20.4315
2023-05-10T10:53:24.281Z,20.4189
2023-05-10T10:54:25.716Z,20.4993
2023-05-10T10:55:27.197Z,20.5740
2023-05-10T10:56:28.480Z,20.7657
2023-05-10T10:57:29.910Z,20.8793
2023-05-10T10:58:31.257Z,20.7647
2023-05-10T10:59:32.734Z,20.5005
2023-05-10T11:00:34.220Z,20.5005
2023-05-10T11:01:35.700Z,20.6451
2023-05-10T11:02:37.105Z,20.7661
2023-05-10T11:03:38.400Z,20.9298
2023-05-10T11:04:40.122Z,21.0263
2023-05-10T11:05:41.527Z,20.7971
2023-05-10T11:06:42.617Z,20.4929
2023-05-10T11:07:44.413Z,20.5108
2023-05-10T11:08:45.746Z,20.6266
2023-05-10T11:09:48.166Z,20.7813
2023-05-10T11:10:48.642Z,20.9214
2023-05-10T11:11:50.230Z,21.0496
2023-05-10T11:12:51.142Z,20.9425
2023-05-10T11:13:52.663Z,20.7032
2023-05-10T11:14:54.038Z,20.6667
2023-05-10T11:15:55.528Z,20.7987
2023-05-10T11:16:56.924Z,20.9140
2023-05-10T11:17:58.340Z,21.0387
2023-05-10T11:18:59.771Z,21.0888
2023-05-10T11:20:01.170Z,20.8154
2023-05-10T11:21:02.664Z,20.7396
2023-05-10T11:22:04.069Z,20.8409
2023-05-10T11:23:05.432Z,20.9584
2023-05-10T11:24:07.103Z,21.1069
2023-05-10T11:25:08.500Z,21.1510
2023-05-10T11:26:09.582Z,20.8292
2023-05-10T11:27:11.069Z,20.8090
2023-05-10T11:28:12.466Z,20.8846
2023-05-10T11:29:13.976Z,21.0074
2023-05-10T11:30:15.877Z,21.1085
2023-05-10T11:31:16.945Z,21.2246
2023-05-10T11:32:18.161Z,20.9666
2023-05-10T11:33:19.610Z,20.7766
2023-05-10T11:34:20.992Z,20.8335
2023-05-10T11:35:22.446Z,20.9204
2023-05-10T11:36:23.871Z,21.0282
2023-05-10T11:37:25.305Z,21.1857
2023-05-10T11:38:26.735Z,21.1054
2023-05-10T11:39:28.106Z,20.7443
2023-05-10T11:40:29.548Z,20.6702
2023-05-10T11:41:31.093Z,20.7392
2023-05-10T11:42:32.340Z,20.8598
2023-05-10T11:43:33.984Z,20.9471
2023-05-10T11:44:35.294Z,21.0650
2023-05-10T11:45:36.633Z,21.0089
2023-05-10T11:46:38.446Z,20.6120
2023-05-10T11:47:40.794Z,20.5408
2023-05-10T11:48:40.970Z,20.6357
2023-05-10T11:49:42.316Z,20.7472
2023-05-10T11:50:43.884Z,20.9150
2023-05-10T11:51:45.198Z,21.0157
2023-05-10T11:52:46.941Z,20.9337
2023-05-10T11:53:48.048Z,20.5763
2023-05-10T11:54:49.474Z,20.5062
2023-05-10T11:55:50.931Z,20.5586
2023-05-10T11:56:52.398Z,20.7256
2023-05-10T11:57:54.115Z,20.8976
2023-05-10T11:58:55.142Z,21.0471
2023-05-10T11:59:56.659Z,20.9444
2023-05-10T12:00:57.995Z,20.6022
2023-05-10T12:01:59.826Z,20.6174
2023-05-10T12:03:01.180Z,20.6400
2023-05-10T12:04:02.493Z,20.7692
2023-05-10T12:05:04.721Z,20.9358
2023-05-10T12:06:05.098Z,20.9458
2023-05-10T12:07:06.653Z,20.5773
2023-05-10T12:08:08.001Z,20.4927
2023-05-10T12:09:09.539Z,20.5373
2023-05-10T12:10:10.802Z,20.6679
2023-05-10T12:11:12.315Z,20.8596
2023-05-10T12:12:13.724Z,21.0177
2023-05-10T12:13:15.200Z,21.0072
2023-05-10T12:14:16.514Z,20.6198
2023-05-10T12:15:17.974Z,20.5761
2023-05-10T12:16:19.633Z,20.6513
2023-05-10T12:17:20.795Z,20.7809
2023-05-10T12:18:22.207Z,20.9146
2023-05-10T12:19:23.620Z,21.0600
2023-05-10T12:20:25.030Z,21.0598
2023-05-10T12:21:26.499Z,20.6527
2023-05-10T12:22:27.972Z,20.5299